Time;durP1;ratioP1;P1;durP2;ratioP2;P2;SDS_P1;SDS_P2;PMS_P1;PMS_P2;Temp;Humidity;BMP_temperature;BMP_pressure;BME280_temperature;BME280_humidity;BME280_pressure;Samples;Min_cycle;Max_cycle;Signal;HPM_P1;HPM_P2
2021/06/29 00:01:33;;;;;;;8.35;5.83;;;;;;;19.34;79.04;100339.09;1707238;84;21219;-54
2021/06/29 00:04:38;;;;;;;9.68;6.20;;;;;;;19.38;79.03;100344.20;1706572;84;21200;-55
2021/06/29 00:07:45;;;;;;;11.57;5.87;;;;;;;19.42;78.87;100340.72;1707654;84;21228;-55
2021/06/29 00:10:50;;;;;;;8.48;5.85;;;;;;;19.41;78.69;100331.24;1707639;84;21308;-55
2021/06/29 00:13:56;;;;;;;9.88;6.67;;;;;;;19.39;78.49;100335.64;1706401;84;21224;-55
2021/06/29 00:17:01;;;;;;;9.75;6.90;;;;;;;19.37;78.56;100335.55;1707337;84;21299;-55
2021/06/29 00:20:06;;;;;;;8.70;6.37;;;;;;;19.33;78.53;100332.39;1707123;84;21252;-55
2021/06/29 00:23:11;;;;;;;8.45;6.50;;;;;;;19.30;78.71;100329.55;1707641;84;21197;-56
2021/06/29 00:26:17;;;;;;;11.30;7.30;;;;;;;19.26;78.76;100329.69;1707582;84;21272;-56
2021/06/29 00:29:23;;;;;;;10.85;7.00;;;;;;;19.22;78.90;100327.06;1707558;84;21201;-55
2021/06/29 00:32:28;;;;;;;9.58;6.78;;;;;;;19.18;78.96;100331.39;1707768;84;21292;-55
2021/06/29 00:35:34;;;;;;;8.45;6.65;;;;;;;19.16;79.10;100325.75;1707726;84;21284;-56
2021/06/29 00:38:39;;;;;;;12.43;7.30;;;;;;;19.14;79.43;100324.59;1707667;84;21232;-56
2021/06/29 00:41:45;;;;;;;9.53;6.47;;;;;;;19.16;79.49;100321.06;1712540;82;21757;-57
2021/06/29 00:44:52;;;;;;;11.85;6.70;;;;;;;19.17;79.42;100313.03;1711721;84;21411;-56
2021/06/29 00:47:58;;;;;;;10.25;6.83;;;;;;;19.17;79.35;100313.03;1712494;84;21236;-56
2021/06/29 00:51:03;;;;;;;10.60;6.62;;;;;;;19.17;79.15;100313.59;1712513;84;21275;-56
2021/06/29 00:54:09;;;;;;;11.40;7.12;;;;;;;19.12;79.11;100311.48;1712063;84;21236;-55
2021/06/29 00:57:17;;;;;;;11.63;7.35;;;;;;;19.08;79.28;100309.41;1712224;84;21212;-55
2021/06/29 01:00:24;;;;;;;10.23;6.60;;;;;;;19.07;79.37;100312.75;1711358;84;21378;-55
2021/06/29 01:03:29;;;;;;;9.98;6.40;;;;;;;19.07;79.31;100312.75;1712735;84;21315;-55
2021/06/29 01:06:35;;;;;;;9.30;6.28;;;;;;;19.05;79.21;100306.58;1712264;84;21247;-55
2021/06/29 01:09:40;;;;;;;8.95;6.40;;;;;;;19.05;79.14;100310.74;1712136;84;21385;-56
2021/06/29 01:12:46;;;;;;;9.45;7.28;;;;;;;19.03;79.18;100306.48;1712415;84;21228;-56
2021/06/29 01:15:52;;;;;;;14.53;7.65;;;;;;;18.99;79.18;100306.13;1712436;84;21381;-55
2021/06/29 01:18:57;;;;;;;11.00;8.98;;;;;;;18.97;79.24;100317.13;1712251;84;21208;-55
2021/06/29 01:22:03;;;;;;;12.28;9.08;;;;;;;18.93;79.18;100315.91;1712464;84;21248;-55
2021/06/29 01:25:10;;;;;;;15.00;9.33;;;;;;;18.88;79.36;100315.22;1710661;84;21301;-55
2021/06/29 01:28:21;;;;;;;19.98;11.03;;;;;;;18.86;79.69;100317.38;1711639;84;21205;-55
2021/06/29 01:31:23;;;;;;;18.62;12.43;;;;;;;18.86;79.85;100311.83;1712624;84;21386;-55
2021/06/29 01:34:30;;;;;;;31.77;15.88;;;;;;;18.88;79.84;100311.06;1712674;84;21350;-55
2021/06/29 01:37:35;;;;;;;23.42;14.13;;;;;;;18.89;79.79;100311.89;1712786;84;21272;-55
2021/06/29 01:40:40;;;;;;;32.67;16.45;;;;;;;18.84;79.56;100309.81;1712786;84;21315;-55
2021/06/29 01:43:49;;;;;;;24.85;14.25;;;;;;;18.79;79.64;100308.83;1713091;83;21356;-55
2021/06/29 01:46:55;;;;;;;27.55;14.23;;;;;;;18.78;80.00;100305.20;1723648;83;21691;-55
2021/06/29 01:50:00;;;;;;;22.42;13.15;;;;;;;18.78;80.15;100305.72;1723501;83;21245;-55
2021/06/29 01:53:07;;;;;;;26.68;13.70;;;;;;;18.81;80.17;100310.28;1723447;83;21351;-55
2021/06/29 01:56:16;;;;;;;20.30;12.10;;;;;;;18.84;80.14;100309.81;1723613;83;21347;-55
2021/06/29 01:59:22;;;;;;;24.30;12.55;;;;;;;18.87;80.01;100319.06;1723422;83;21344;-54
2021/06/29 02:02:27;;;;;;;28.52;12.58;;;;;;;18.91;79.88;100325.00;1723431;83;21285;-55
2021/06/29 02:05:33;;;;;;;19.40;10.55;;;;;;;18.97;79.80;100324.06;1723470;83;21352;-55
2021/06/29 02:08:38;;;;;;;14.28;9.13;;;;;;;19.02;79.73;100316.76;1723490;83;21336;-55
2021/06/29 02:11:45;;;;;;;15.85;9.20;;;;;;;19.08;79.64;100314.44;1723508;83;21348;-56
2021/06/29 02:14:50;;;;;;;13.25;8.10;;;;;;;19.15;79.55;100324.07;1723613;83;21808;-55
2021/06/29 02:17:56;;;;;;;15.70;7.25;;;;;;;19.18;79.51;100323.07;1723433;83;21308;-56
2021/06/29 02:21:01;;;;;;;10.25;6.92;;;;;;;19.20;79.51;100322.27;1723684;83;21375;-56
2021/06/29 02:24:07;;;;;;;10.32;7.55;;;;;;;19.24;79.48;100332.37;1723378;83;21320;-55
2021/06/29 02:27:13;;;;;;;10.45;6.75;;;;;;;19.25;79.43;100332.14;1723398;83;21194;-56
2021/06/29 02:30:20;;;;;;;12.40;7.67;;;;;;;19.29;79.36;100335.34;1723147;83;21755;-56
2021/06/29 02:33:25;;;;;;;12.50;7.40;;;;;;;19.32;79.29;100334.87;1723143;83;21214;-55
2021/06/29 02:36:30;;;;;;;13.22;6.75;;;;;;;19.38;79.08;100340.05;1722953;83;21340;-54
2021/06/29 02:39:36;;;;;;;12.18;6.55;;;;;;;19.43;78.87;100345.72;1722884;83;21328;-54
2021/06/29 02:42:41;;;;;;;10.65;7.03;;;;;;;19.49;78.72;100347.02;1722081;80;21369;-54
2021/06/29 02:45:46;;;;;;;9.43;6.10;;;;;;;19.57;78.56;100341.70;1717312;83;21251;-54
2021/06/29 02:48:55;;;;;;;9.68;6.50;;;;;;;19.67;78.38;100346.98;1717439;83;21220;-55
2021/06/29 02:51:59;;;;;;;10.05;6.60;;;;;;;19.74;78.19;100351.06;1717673;83;21611;-55
2021/06/29 02:55:05;;;;;;;9.23;7.25;;;;;;;19.81;78.08;100353.18;1717591;83;21228;-55
2021/06/29 02:58:10;;;;;;;6.97;5.87;;;;;;;19.85;77.93;100349.69;1717414;83;21736;-55
2021/06/29 03:01:16;;;;;;;10.30;6.45;;;;;;;19.89;77.73;100358.41;1717672;83;21390;-55
2021/06/29 03:04:15;;;;;;;13.50;7.22;;;;;;;19.89;77.66;100354.23;1717551;83;21220;-57
2021/06/29 03:07:21;;;;;;;11.25;6.95;;;;;;;19.91;77.63;100354.33;1717566;83;21732;-57
2021/06/29 03:10:27;;;;;;;11.03;6.45;;;;;;;19.98;77.55;100357.01;1717810;83;21366;-58
2021/06/29 03:13:32;;;;;;;9.03;6.78;;;;;;;20.02;77.39;100351.27;1718079;83;21320;-52
2021/06/29 03:16:37;;;;;;;12.20;7.12;;;;;;;20.10;77.19;100354.56;1717737;83;21378;-52
2021/06/29 03:19:42;;;;;;;9.30;6.85;;;;;;;20.16;77.11;100359.19;1716674;83;21370;-52
2021/06/29 03:22:48;;;;;;;9.88;6.53;;;;;;;20.23;77.05;100361.87;1716806;83;21204;-52
2021/06/29 03:25:53;;;;;;;7.90;6.28;;;;;;;20.30;76.89;100360.66;1716335;83;21378;-51
2021/06/29 03:28:59;;;;;;;11.55;6.75;;;;;;;20.41;76.79;100366.78;1716235;83;21848;-52
2021/06/29 03:32:03;;;;;;;11.53;7.70;;;;;;;20.53;76.51;100366.80;1716869;83;21340;-52
2021/06/29 03:35:08;;;;;;;9.53;7.15;;;;;;;20.65;76.21;100369.03;1717571;83;21393;-52
2021/06/29 03:38:13;;;;;;;8.08;6.87;;;;;;;20.78;76.02;100369.66;1717624;83;21240;-53
2021/06/29 03:41:21;;;;;;;11.33;7.12;;;;;;;20.86;75.82;100366.19;1716913;83;21362;-52
2021/06/29 03:44:27;;;;;;;9.95;7.45;;;;;;;20.89;75.84;100372.13;1718608;83;21377;-52
2021/06/29 03:47:32;;;;;;;13.78;7.95;;;;;;;20.94;75.84;100372.78;1722983;83;21344;-52
2021/06/29 03:50:38;;;;;;;9.98;8.05;;;;;;;20.95;75.79;100372.53;1722907;83;21382;-50
2021/06/29 03:53:44;;;;;;;10.18;7.08;;;;;;;20.99;75.72;100376.58;1723008;83;21381;-52
2021/06/29 03:56:49;;;;;;;11.12;8.30;;;;;;;21.07;75.78;100370.64;1723048;83;21377;-50
2021/06/29 03:59:55;;;;;;;10.43;7.83;;;;;;;21.15;75.80;100366.63;1723016;83;21374;-50
2021/06/29 04:03:00;;;;;;;13.72;8.05;;;;;;;21.20;75.70;100359.78;1723053;83;21346;-52
2021/06/29 04:06:06;;;;;;;11.03;8.48;;;;;;;21.25;75.57;100369.06;1723724;82;21347;-51
2021/06/29 04:09:14;;;;;;;8.65;7.72;;;;;;;21.31;75.50;100366.69;1745571;80;21344;-52
2021/06/29 04:12:20;;;;;;;10.72;8.30;;;;;;;21.37;75.45;100371.30;1746857;82;21214;-52
2021/06/29 04:15:26;;;;;;;10.28;8.30;;;;;;;21.45;75.49;100366.73;1750671;81;21372;-54
2021/06/29 04:18:33;;;;;;;11.05;8.03;;;;;;;21.57;75.53;100360.56;1746736;82;21544;-53
2021/06/29 04:21:38;;;;;;;11.15;8.60;;;;;;;21.65;75.29;100357.92;1751145;81;21403;-53
2021/06/29 04:24:44;;;;;;;8.80;7.90;;;;;;;21.74;75.11;100360.06;1747216;82;21683;-53
2021/06/29 04:27:50;;;;;;;9.75;8.53;;;;;;;21.82;75.07;100361.63;1750682;81;21241;-53
2021/06/29 04:30:55;;;;;;;11.10;8.60;;;;;;;21.93;74.96;100366.30;1719132;82;21246;-52
2021/06/29 04:34:01;;;;;;;11.08;8.30;;;;;;;21.96;74.71;100363.05;1718648;83;21223;-52
2021/06/29 04:37:07;;;;;;;11.25;8.70;;;;;;;21.98;74.75;100360.30;1718804;83;21381;-52
2021/06/29 04:40:15;;;;;;;9.80;8.50;;;;;;;22.02;74.49;100357.86;1718823;83;21397;-51
2021/06/29 04:43:22;;;;;;;11.95;9.60;;;;;;;22.09;74.19;100359.37;1718405;83;21883;-52
2021/06/29 04:46:28;;;;;;;11.93;8.45;;;;;;;22.21;73.82;100355.95;1718371;82;21808;-52
2021/06/29 04:49:34;;;;;;;9.10;8.20;;;;;;;22.35;73.36;100347.27;1718632;83;21361;-51
2021/06/29 04:52:42;;;;;;;9.15;7.37;;;;;;;22.50;72.47;100353.13;1718154;83;21355;-51
2021/06/29 04:55:48;;;;;;;8.70;7.72;;;;;;;22.63;71.62;100348.63;1717382;83;21369;-48
2021/06/29 04:58:57;;;;;;;10.00;7.30;;;;;;;22.76;70.50;100354.69;1719944;83;21385;-48
2021/06/29 05:02:02;;;;;;;11.28;8.43;;;;;;;22.88;69.92;100351.80;1720621;82;21293;-48
2021/06/29 05:05:08;;;;;;;8.58;7.45;;;;;;;23.03;69.92;100353.41;1718529;83;21380;-49
2021/06/29 05:08:14;;;;;;;9.63;7.22;;;;;;;23.13;68.60;100355.81;1719451;83;21366;-49
2021/06/29 05:11:20;;;;;;;8.63;7.15;;;;;;;23.22;67.79;100350.05;1708226;83;21295;-48
2021/06/29 05:14:27;;;;;;;10.82;7.03;;;;;;;23.34;67.22;100351.38;1720678;81;21369;-48
2021/06/29 05:17:32;;;;;;;10.13;7.83;;;;;;;23.42;66.53;100347.55;1710376;83;21342;-47
2021/06/29 05:20:37;;;;;;;8.90;7.15;;;;;;;23.51;66.09;100347.95;1718984;83;21291;-48
2021/06/29 05:23:42;;;;;;;8.15;7.35;;;;;;;23.63;66.22;100351.44;1719531;83;21184;-48
2021/06/29 05:26:50;;;;;;;8.33;6.15;;;;;;;23.74;65.62;100342.05;1719693;83;21246;-49
2021/06/29 05:29:57;;;;;;;8.63;6.55;;;;;;;23.82;65.06;100344.38;1710445;83;21269;-49
2021/06/29 05:33:02;;;;;;;7.42;6.40;;;;;;;23.87;64.91;100340.80;1721382;83;21201;-49
2021/06/29 05:36:07;;;;;;;9.10;6.28;;;;;;;23.89;64.29;100346.43;1718220;83;21590;-51
2021/06/29 05:39:15;;;;;;;14.98;10.00;;;;;;;23.94;63.84;100340.89;1727706;81;21733;-50
2021/06/29 05:42:20;;;;;;;19.92;12.73;;;;;;;24.00;64.13;100337.61;1720368;83;21841;-54
2021/06/29 05:45:26;;;;;;;13.90;11.33;;;;;;;24.06;63.74;100335.16;1720769;83;21427;-51
2021/06/29 05:48:33;;;;;;;7.92;6.67;;;;;;;24.16;63.33;100332.46;1720070;83;21336;-52
2021/06/29 05:51:40;;;;;;;7.10;6.33;;;;;;;24.28;63.11;100333.97;1719606;83;21611;-52
2021/06/29 05:54:45;;;;;;;12.75;8.53;;;;;;;24.40;62.64;100335.20;1719952;83;21222;-51
2021/06/29 05:57:51;;;;;;;12.75;6.17;;;;;;;24.52;62.31;100335.84;1713545;83;21656;-51
2021/06/29 06:00:55;;;;;;;9.90;6.53;;;;;;;24.62;61.98;100332.59;1716074;83;21335;-51
2021/06/29 06:04:01;;;;;;;9.33;6.28;;;;;;;24.71;61.43;100324.55;1717244;83;21963;-56
2021/06/29 06:07:06;;;;;;;11.83;7.58;;;;;;;24.76;60.59;100320.38;1728798;81;21195;-55
2021/06/29 06:10:14;;;;;;;8.40;6.72;;;;;;;24.83;59.75;100317.63;1721966;82;21451;-55
2021/06/29 06:13:20;;;;;;;10.23;6.47;;;;;;;24.93;60.25;100323.30;1718669;82;21371;-55
2021/06/29 06:16:26;;;;;;;10.23;6.58;;;;;;;25.10;60.89;100329.28;1701744;83;21410;-55
2021/06/29 06:19:35;;;;;;;7.47;6.55;;;;;;;25.27;60.84;100328.52;1728552;82;21252;-54
2021/06/29 06:22:40;;;;;;;10.72;6.15;;;;;;;25.37;60.63;100333.64;1717479;82;21172;-54
2021/06/29 06:25:46;;;;;;;8.25;6.20;;;;;;;25.44;59.96;100336.19;1727712;82;21226;-54
2021/06/29 06:28:52;;;;;;;7.00;5.92;;;;;;;25.53;60.08;100326.98;1712560;82;21275;-54
2021/06/29 06:31:57;;;;;;;7.05;6.33;;;;;;;25.62;59.85;100335.16;1708062;83;21273;-54
2021/06/29 06:35:03;;;;;;;7.67;6.30;;;;;;;25.70;58.62;100338.84;1695090;82;21440;-54
2021/06/29 06:38:11;;;;;;;10.25;6.15;;;;;;;25.81;58.39;100337.74;1723377;81;21377;-54
2021/06/29 06:41:16;;;;;;;7.65;5.75;;;;;;;25.88;58.29;100341.66;1715381;82;21321;-53
2021/06/29 06:44:21;;;;;;;6.72;5.72;;;;;;;25.89;58.17;100343.37;1695884;82;21749;-54
2021/06/29 06:47:26;;;;;;;7.67;5.60;;;;;;;25.93;57.90;100345.88;1728225;82;21329;-53
2021/06/29 06:50:32;;;;;;;9.23;6.62;;;;;;;25.97;57.73;100342.24;1689167;85;21344;-53
2021/06/29 06:53:38;;;;;;;8.43;6.12;;;;;;;26.06;57.71;100345.39;1714588;82;21238;-52
2021/06/29 06:56:43;;;;;;;7.00;5.72;;;;;;;26.14;57.70;100342.89;1717627;83;21231;-53
2021/06/29 06:59:49;;;;;;;8.58;6.25;;;;;;;26.28;57.29;100338.96;1718462;83;21274;-54
2021/06/29 07:02:56;;;;;;;10.15;5.42;;;;;;;26.44;57.87;100341.51;1724982;81;21216;-49
2021/06/29 07:06:00;;;;;;;7.55;6.17;;;;;;;26.60;56.46;100339.53;1717718;82;21571;-50
2021/06/29 07:09:05;;;;;;;6.80;5.90;;;;;;;26.66;55.25;100338.44;1714664;81;21353;-52
2021/06/29 07:12:16;;;;;;;7.83;6.00;;;;;;;26.75;55.01;100338.72;1722894;82;21353;-51
2021/06/29 07:15:27;;;;;;;8.28;5.42;;;;;;;26.84;54.45;100339.81;1695598;82;21816;-52
2021/06/29 07:18:31;;;;;;;8.30;5.65;;;;;;;26.85;54.61;100342.34;1719259;83;21223;-50
2021/06/29 07:21:37;;;;;;;8.10;5.10;;;;;;;26.87;53.98;100337.84;1719075;83;21231;-56
2021/06/29 07:24:44;;;;;;;6.35;4.67;;;;;;;26.99;52.74;100332.20;1719842;83;21192;-54
2021/06/29 07:27:53;;;;;;;6.45;4.70;;;;;;;27.14;52.97;100329.91;1719987;83;21761;-54
2021/06/29 07:30:58;;;;;;;8.28;5.12;;;;;;;27.20;52.34;100331.58;1719522;83;21377;-52
2021/06/29 07:34:07;;;;;;;10.38;5.10;;;;;;;27.15;51.68;100325.41;1719831;83;21978;-55
2021/06/29 07:37:13;;;;;;;10.70;5.53;;;;;;;27.16;51.38;100325.67;1714380;83;21374;-56
2021/06/29 07:40:19;;;;;;;6.95;4.85;;;;;;;27.22;51.86;100328.77;1714034;83;21212;-56
2021/06/29 07:43:24;;;;;;;5.60;4.53;;;;;;;27.27;50.66;100330.75;1713259;83;21200;-55
2021/06/29 07:46:30;;;;;;;5.62;5.03;;;;;;;27.21;51.09;100329.88;1705073;84;21237;-55
2021/06/29 07:49:36;;;;;;;9.28;4.80;;;;;;;27.17;51.62;100328.78;1708370;81;21821;-57
2021/06/29 07:52:42;;;;;;;7.22;5.17;;;;;;;27.14;50.66;100320.93;1688927;84;21219;-57
2021/06/29 07:55:52;;;;;;;6.80;5.37;;;;;;;27.10;50.14;100324.02;1689206;84;21878;-57
2021/06/29 07:58:57;;;;;;;6.97;5.03;;;;;;;27.05;50.18;100328.83;1689350;83;21262;-56
2021/06/29 08:02:04;;;;;;;23.67;8.18;;;;;;;26.94;50.85;100339.81;1689257;84;21564;-57
2021/06/29 08:05:11;;;;;;;11.10;4.20;;;;;;;26.65;57.39;100358.38;1689366;84;21771;-57
2021/06/29 08:08:16;;;;;;;7.10;3.85;;;;;;;25.53;55.41;100340.17;1697416;83;21242;-56
2021/06/29 08:11:23;;;;;;;8.15;3.35;;;;;;;24.77;58.21;100345.31;1714427;83;21250;-56
2021/06/29 08:14:33;;;;;;;8.85;4.00;;;;;;;24.41;59.71;100342.47;1717785;82;21466;-56
2021/06/29 08:17:40;;;;;;;7.60;4.05;;;;;;;24.17;61.95;100336.94;1694208;83;21374;-56
2021/06/29 08:20:46;;;;;;;10.18;4.75;;;;;;;23.94;65.39;100350.69;1709438;84;21374;-56
2021/06/29 08:23:51;;;;;;;9.98;4.80;;;;;;;23.77;66.86;100344.33;1716737;83;21280;-56
2021/06/29 08:26:56;;;;;;;10.50;5.15;;;;;;;23.63;68.15;100335.52;1717430;83;21773;-54
2021/06/29 08:30:01;;;;;;;18.95;5.60;;;;;;;23.51;70.12;100331.17;1717382;83;21315;-57
2021/06/29 08:33:10;;;;;;;12.80;5.80;;;;;;;23.50;71.33;100319.14;1689517;85;21729;-54
2021/06/29 08:36:12;;;;;;;15.55;5.45;;;;;;;23.54;71.35;100330.66;1689790;83;21804;-57
2021/06/29 08:39:19;;;;;;;6.42;4.80;;;;;;;23.60;72.86;100324.86;1715104;82;21211;-54
2021/06/29 08:42:29;;;;;;;8.40;5.50;;;;;;;23.63;73.28;100317.34;1703474;83;21203;-55
2021/06/29 08:45:36;;;;;;;10.53;6.05;;;;;;;23.71;73.77;100316.56;1718595;81;21760;-56
2021/06/29 08:48:41;;;;;;;10.45;7.78;;;;;;;23.88;74.65;100315.94;1717173;82;21269;-56
2021/06/29 08:51:47;;;;;;;10.53;8.20;;;;;;;24.09;74.46;100327.63;1717454;83;21252;-54
2021/06/29 08:54:52;;;;;;;10.30;7.30;;;;;;;24.22;73.70;100337.84;1719160;83;21876;-54
2021/06/29 08:57:59;;;;;;;8.38;6.47;;;;;;;24.35;72.24;100343.55;1719203;83;21851;-56
2021/06/29 09:01:04;;;;;;;12.58;7.50;;;;;;;24.47;72.57;100347.85;1719728;83;21372;-55
2021/06/29 09:04:11;;;;;;;16.02;9.10;;;;;;;24.54;70.07;100334.48;1715877;82;21217;-56
2021/06/29 09:07:35;;;;;;;19.42;10.40;;;;;;;24.59;65.72;100329.48;1716263;83;21223;-56
2021/06/29 09:10:43;;;;;;;9.45;5.67;;;;;;;24.65;64.16;100325.05;1718660;83;21791;-57
2021/06/29 09:13:49;;;;;;;10.38;6.10;;;;;;;24.70;62.10;100329.88;1718902;83;21601;-57
2021/06/29 09:16:55;;;;;;;5.70;5.15;;;;;;;24.74;62.11;100333.26;1719630;83;21192;-55
2021/06/29 09:20:03;;;;;;;6.05;4.80;;;;;;;24.77;61.83;100342.52;1719921;83;21364;-56
2021/06/29 09:23:30;;;;;;;4.67;4.05;;;;;;;24.78;60.85;100341.97;1720296;83;21405;-55
2021/06/29 09:26:37;;;;;;;6.97;4.47;;;;;;;24.75;61.25;100346.13;1719819;83;21883;-53
2021/06/29 09:29:43;;;;;;;4.65;3.72;;;;;;;24.70;61.12;100350.33;1715922;83;21824;-53
2021/06/29 09:32:48;;;;;;;7.20;4.15;;;;;;;24.65;61.02;100348.00;1712774;83;21200;-55
2021/06/29 09:35:57;;;;;;;5.65;4.12;;;;;;;24.52;60.30;100355.44;1712683;83;21249;-53
2021/06/29 09:39:07;;;;;;;6.08;4.45;;;;;;;24.42;60.53;100360.98;1710801;82;21215;-52
2021/06/29 09:42:12;;;;;;;12.03;4.67;;;;;;;24.33;60.54;100357.81;1718057;82;21228;-52
2021/06/29 09:45:44;;;;;;;10.48;5.03;;;;;;;24.34;60.12;100369.28;1714294;83;21394;-56
2021/06/29 09:48:59;;;;;;;10.00;4.97;;;;;;;24.44;61.33;100373.58;1716301;83;21267;-54
2021/06/29 09:52:09;;;;;;;7.00;4.92;;;;;;;24.60;62.32;100382.40;1721166;81;21287;-53
2021/06/29 09:55:15;;;;;;;5.62;4.00;;;;;;;24.79;63.94;100375.30;1687952;83;21260;-53
2021/06/29 09:58:21;;;;;;;7.17;3.30;;;;;;;24.91;63.60;100376.52;1702549;83;21223;-54
2021/06/29 10:01:32;;;;;;;7.05;3.62;;;;;;;25.00;62.88;100371.54;1719915;83;21828;-54
2021/06/29 10:04:36;;;;;;;7.15;4.17;;;;;;;25.11;61.80;100367.38;1714858;83;21222;-55
2021/06/29 10:07:45;;;;;;;9.25;3.27;;;;;;;25.24;62.32;100368.30;1719551;81;21259;-56
2021/06/29 10:10:50;;;;;;;5.60;3.05;;;;;;;25.32;61.68;100369.19;1669883;84;21293;-53
2021/06/29 10:14:00;;;;;;;5.90;3.80;;;;;;;25.31;61.18;100373.13;1690212;84;21757;-53
2021/06/29 10:17:10;;;;;;;5.30;3.30;;;;;;;25.34;61.59;100375.41;1720964;83;21192;-53
2021/06/29 10:20:25;;;;;;;4.53;3.65;;;;;;;25.47;61.87;100369.28;1708012;83;21639;-53
2021/06/29 10:23:23;;;;;;;7.75;3.80;;;;;;;25.57;61.88;100362.33;1742562;82;21790;-54
2021/06/29 10:26:28;;;;;;;7.87;3.33;;;;;;;25.57;62.18;100351.96;1750109;81;21873;-53
2021/06/29 10:29:36;;;;;;;6.03;3.30;;;;;;;25.65;62.63;100350.03;1748620;82;21205;-56
2021/06/29 10:32:42;;;;;;;6.78;3.30;;;;;;;25.72;62.32;100338.56;1749180;82;21229;-57
2021/06/29 10:35:49;;;;;;;5.40;3.30;;;;;;;25.82;61.67;100338.56;1748785;82;21225;-56
2021/06/29 10:38:53;;;;;;;5.70;3.00;;;;;;;25.86;61.37;100335.51;1749198;82;21340;-57
2021/06/29 10:42:15;;;;;;;6.45;3.00;;;;;;;25.86;61.30;100332.70;1749730;82;21229;-56
2021/06/29 10:45:22;;;;;;;5.97;2.87;;;;;;;25.94;60.86;100337.19;1752356;82;21264;-55
2021/06/29 10:48:30;;;;;;;5.17;3.00;;;;;;;26.08;60.45;100340.35;1752491;82;21241;-55
2021/06/29 10:51:45;;;;;;;5.28;3.08;;;;;;;26.22;60.04;100339.53;1737812;81;21295;-55
2021/06/29 10:54:54;;;;;;;6.97;3.00;;;;;;;26.35;59.83;100333.34;1722334;83;21227;-56
2021/06/29 10:58:02;;;;;;;8.23;4.05;;;;;;;26.47;60.02;100323.24;1723153;82;21362;-56
2021/06/29 11:01:38;;;;;;;7.10;3.95;;;;;;;26.54;59.94;100323.81;1713131;83;21410;-56
2021/06/29 11:05:04;;;;;;;4.70;3.62;;;;;;;26.58;59.32;100326.33;1709250;83;21870;-56
2021/06/29 11:08:24;;;;;;;8.08;3.75;;;;;;;26.59;58.29;100322.41;1702414;84;21240;-55
2021/06/29 11:11:31;;;;;;;6.55;3.25;;;;;;;26.63;57.95;100331.09;1716743;83;21390;-57
2021/06/29 11:14:36;;;;;;;5.85;4.00;;;;;;;26.65;57.49;100340.12;1719169;83;21233;-56
2021/06/29 11:18:03;;;;;;;12.13;4.62;;;;;;;26.53;56.98;100325.50;1719763;82;21261;-57
2021/06/29 11:21:09;;;;;;;13.30;5.55;;;;;;;26.33;60.58;100318.77;1722266;82;21222;-57
2021/06/29 11:24:44;;;;;;;13.68;4.97;;;;;;;26.19;63.60;100319.59;1718019;83;21339;-57
2021/06/29 11:28:19;;;;;;;11.33;5.70;;;;;;;26.09;64.21;100325.19;1719280;83;21337;-58
2021/06/29 11:31:35;;;;;;;8.90;5.33;;;;;;;25.99;66.13;100330.77;1696409;83;21261;-59
2021/06/29 11:34:40;;;;;;;10.45;6.58;;;;;;;25.86;67.29;100332.13;1721672;83;21216;-57
2021/06/29 11:38:12;;;;;;;10.30;6.55;;;;;;;25.78;67.65;100323.42;1718848;83;21211;-54
2021/06/29 11:41:36;;;;;;;8.50;5.25;;;;;;;25.72;68.43;100321.15;1718970;82;21714;-55
2021/06/29 11:44:51;;;;;;;11.40;7.70;;;;;;;25.67;69.00;100333.75;1719107;83;21923;-55
2021/06/29 11:47:58;;;;;;;12.23;6.95;;;;;;;25.63;68.19;100329.83;1719489;83;21805;-55
2021/06/29 11:51:04;;;;;;;10.70;6.80;;;;;;;25.64;68.39;100322.27;1721029;82;21229;-55
2021/06/29 11:54:10;;;;;;;10.88;7.03;;;;;;;25.63;68.85;100333.17;1735248;82;21342;-56
2021/06/29 11:57:42;;;;;;;8.65;5.78;;;;;;;25.62;68.78;100335.71;1714177;83;21220;-55
2021/06/29 12:00:48;;;;;;;8.18;5.00;;;;;;;25.63;68.62;100321.41;1692890;85;21792;-55
2021/06/29 12:03:55;;;;;;;6.70;5.28;;;;;;;25.64;68.63;100332.91;1683555;85;21260;-55
2021/06/29 12:07:13;;;;;;;9.55;5.00;;;;;;;25.63;68.47;100328.97;1717819;82;21751;-54
2021/06/29 12:10:34;;;;;;;7.75;5.42;;;;;;;25.64;68.05;100333.48;1737881;81;21229;-55
2021/06/29 12:13:58;;;;;;;7.72;5.08;;;;;;;25.63;67.63;100337.39;1716294;83;21235;-55
2021/06/29 12:17:19;;;;;;;8.53;5.70;;;;;;;25.66;67.54;100319.45;1716215;83;21295;-55
2021/06/29 12:20:28;;;;;;;6.10;4.65;;;;;;;25.62;67.92;100313.28;1718958;83;21279;-56
2021/06/29 12:23:40;;;;;;;6.40;5.28;;;;;;;25.55;68.79;100314.08;1720149;82;21867;-56
2021/06/29 12:26:52;;;;;;;6.47;5.53;;;;;;;25.48;69.63;100314.33;1661846;84;21423;-56
2021/06/29 12:29:58;;;;;;;9.65;5.55;;;;;;;25.43;70.29;100316.30;1686501;83;21382;-55
2021/06/29 12:33:04;;;;;;;8.25;5.83;;;;;;;25.38;70.73;100318.52;1676081;85;22034;-56
2021/06/29 12:36:16;;;;;;;6.50;5.75;;;;;;;25.38;70.59;100301.70;1701864;83;21232;-55
2021/06/29 12:39:28;;;;;;;11.90;6.28;;;;;;;25.41;71.31;100285.73;1699232;83;21227;-55
2021/06/29 12:42:36;;;;;;;7.72;6.08;;;;;;;25.45;72.16;100274.82;1708399;83;21231;-56
2021/06/29 12:45:43;;;;;;;10.45;5.80;;;;;;;25.54;73.09;100274.55;1695630;83;21792;-55
2021/06/29 12:49:21;;;;;;;5.92;4.75;;;;;;;25.70;72.56;100255.25;1711258;82;21217;-54
2021/06/29 12:52:24;;;;;;;6.58;5.50;;;;;;;25.99;71.57;100255.02;1707660;84;21842;-52
2021/06/29 12:55:31;;;;;;;11.57;6.03;;;;;;;26.24;70.07;100246.63;1681877;82;21253;-55
2021/06/29 12:58:38;;;;;;;6.75;5.08;;;;;;;26.27;70.44;100243.25;1675945;84;21363;-54
2021/06/29 13:01:55;;;;;;;7.87;5.50;;;;;;;26.37;69.98;100247.43;1679190;85;21864;-53
2021/06/29 13:05:02;;;;;;;8.13;6.35;;;;;;;26.39;68.53;100257.83;1680107;85;21256;-54
2021/06/29 13:08:24;;;;;;;7.37;6.00;;;;;;;26.37;68.75;100254.45;1680392;85;21766;-55
2021/06/29 13:11:31;;;;;;;7.97;5.80;;;;;;;26.28;69.55;100257.55;1680597;85;21786;-56
2021/06/29 13:14:37;;;;;;;9.20;5.75;;;;;;;26.20;69.45;100259.52;1680587;85;21804;-56
2021/06/29 13:17:59;;;;;;;5.08;4.30;;;;;;;26.19;69.79;100267.67;1660599;85;21359;-55
2021/06/29 13:21:05;;;;;;;8.73;4.87;;;;;;;26.21;69.36;100269.64;1672143;85;21209;-57
2021/06/29 13:24:19;;;;;;;8.15;5.12;;;;;;;26.39;66.08;100266.25;1690182;85;21399;-56
2021/06/29 13:27:37;;;;;;;7.05;4.42;;;;;;;26.70;66.04;100260.92;1681474;84;21713;-53
2021/06/29 13:30:45;;;;;;;5.03;4.53;;;;;;;26.99;66.36;100253.51;1686108;84;21768;-55
2021/06/29 13:33:54;;;;;;;6.90;4.60;;;;;;;27.16;65.11;100252.59;1686662;84;21222;-57
2021/06/29 13:37:01;;;;;;;5.40;4.30;;;;;;;27.21;62.99;100250.34;1706933;84;21814;-55
2021/06/29 13:40:34;;;;;;;5.53;4.58;;;;;;;27.16;60.63;100243.34;1708779;84;21296;-55
2021/06/29 13:43:42;;;;;;;5.55;4.53;;;;;;;27.15;61.68;100238.27;1709336;84;21206;-56
2021/06/29 13:46:50;;;;;;;5.85;4.60;;;;;;;27.15;63.11;100240.23;1709418;84;21815;-54
2021/06/29 13:50:15;;;;;;;5.78;4.90;;;;;;;27.25;61.64;100245.81;1709499;84;21352;-55
2021/06/29 13:53:23;;;;;;;5.17;4.28;;;;;;;27.38;60.23;100241.86;1708515;84;21432;-54
2021/06/29 13:56:45;;;;;;;6.47;3.60;;;;;;;27.43;59.13;100224.11;1730640;81;21427;-54
2021/06/29 13:59:52;;;;;;;6.87;4.33;;;;;;;27.35;60.30;100224.72;1733772;82;21309;-54
2021/06/29 14:03:18;;;;;;;4.12;2.65;;;;;;;27.22;58.79;100228.13;1669372;85;21210;-54
2021/06/29 14:06:25;;;;;;;;;;;;;;;27.11;57.41;100245.61;1703190;84;21230;-53
2021/06/29 14:09:32;;;;;;;4.20;2.37;;;;;;;26.91;55.56;100238.64;1700544;84;20288;-51
2021/06/29 14:12:37;;;;;;;3.85;2.15;;;;;;;26.66;55.42;100233.66;1612157;85;21210;-52
2021/06/29 14:15:45;;;;;;;7.53;3.05;;;;;;;26.40;57.34;100225.84;1668596;85;21213;-52
2021/06/29 14:18:52;;;;;;;5.42;3.27;;;;;;;26.19;58.90;100224.17;1700027;83;21183;-53
2021/06/29 14:21:59;;;;;;;7.08;2.58;;;;;;;26.00;59.67;100224.45;1692912;83;21259;-51
2021/06/29 14:25:05;;;;;;;3.77;2.67;;;;;;;25.88;62.14;100239.27;1716624;83;21522;-55
2021/06/29 14:28:13;;;;;;;4.28;3.00;;;;;;;25.71;62.04;100230.28;1716575;83;21223;-54
2021/06/29 14:31:19;;;;;;;7.28;3.70;;;;;;;25.64;62.24;100236.16;1696017;83;21397;-56